A6CTL OMDB-OMDB
Flight info
| Callsign | A6CTL |
|---|---|
| Flight time | N/A |
| Altitude | 1000 |
| Route | VFR |
| Aircraft | C172/L-V/N |
Departure
| Time | 2026-05-06 16:43 |
|---|---|
| Airport | Dubai International Airport (OMDB) |
Arrival
| Time | N/A |
|---|---|
| Airport | Dubai International Airport (OMDB) |
| Time | Latitude | Longitude | Altitude | Speed | Heading |
|---|---|---|---|---|---|
| 2026-05-06 16:33 | 25.25694 | 55.37389 | 16 ft | 0 kts | 301° |
| 2026-05-06 16:36 | 25.25695 | 55.37381 | 16 ft | 2 kts | 256° |
| 2026-05-06 16:36 | 25.25671 | 55.37376 | 16 ft | 8 kts | 114° |
| 2026-05-06 16:36 | 25.25624 | 55.37432 | 16 ft | 14 kts | 205° |
| 2026-05-06 16:37 | 25.25551 | 55.37381 | 16 ft | 13 kts | 211° |
| 2026-05-06 16:37 | 25.25480 | 55.37362 | 17 ft | 10 kts | 133° |
| 2026-05-06 16:37 | 25.25448 | 55.37416 | 17 ft | 7 kts | 123° |
| 2026-05-06 16:37 | 25.25441 | 55.37427 | 17 ft | 0 kts | 123° |
| 2026-05-06 16:38 | 25.25439 | 55.37430 | 17 ft | 0 kts | 135° |
| 2026-05-06 16:38 | 25.25429 | 55.37436 | 17 ft | 4 kts | 180° |
| 2026-05-06 16:38 | 25.25394 | 55.37380 | 17 ft | 16 kts | 170° |
| 2026-05-06 16:38 | 25.25305 | 55.37496 | 18 ft | 26 kts | 121° |
| 2026-05-06 16:39 | 25.25196 | 55.37690 | 18 ft | 32 kts | 123° |
| 2026-05-06 16:39 | 25.25075 | 55.37903 | 17 ft | 34 kts | 123° |
| 2026-05-06 16:39 | 25.24959 | 55.38111 | 17 ft | 22 kts | 131° |
| 2026-05-06 16:39 | 25.24875 | 55.38097 | 18 ft | 0 kts | 212° |
| 2026-05-06 16:40 | 25.24871 | 55.38094 | 19 ft | 5 kts | 213° |
| 2026-05-06 16:40 | 25.24826 | 55.38041 | 20 ft | 16 kts | 252° |
| 2026-05-06 16:40 | 25.24848 | 55.37951 | 20 ft | 0 kts | 301° |
| 2026-05-06 16:42 | 25.24932 | 55.37799 | 20 ft | 48 kts | 303° |
| 2026-05-06 16:42 | 25.25184 | 55.37345 | 22 ft | 88 kts | 301° |
| 2026-05-06 16:42 | 25.25502 | 55.36727 | 162 ft | 95 kts | 300° |
| 2026-05-06 16:43 | 25.25852 | 55.36126 | 378 ft | 90 kts | 304° |
| 2026-05-06 16:43 | 25.26128 | 55.35543 | 536 ft | 92 kts | 304° |
| 2026-05-06 16:43 | 25.26494 | 55.34921 | 663 ft | 97 kts | 306° |
| 2026-05-06 16:43 | 25.26873 | 55.34287 | 809 ft | 96 kts | 305° |
| 2026-05-06 16:44 | 25.26877 | 55.33644 | 915 ft | 102 kts | 227° |
| 2026-05-06 16:44 | 25.26218 | 55.33252 | 942 ft | 110 kts | 195° |
| 2026-05-06 16:44 | 25.25453 | 55.33023 | 900 ft | 119 kts | 166° |
| 2026-05-06 16:44 | 25.25080 | 55.33863 | 564 ft | 137 kts | 106° |
| 2026-05-06 16:45 | 25.24593 | 55.34711 | 583 ft | 124 kts | 128° |
| 2026-05-06 16:45 | 25.24057 | 55.35398 | 727 ft | 115 kts | 125° |
| 2026-05-06 16:45 | 25.23637 | 55.36163 | 711 ft | 118 kts | 117° |
| 2026-05-06 16:45 | 25.23231 | 55.36959 | 698 ft | 123 kts | 115° |
| 2026-05-06 16:46 | 25.22843 | 55.37812 | 665 ft | 121 kts | 115° |
| 2026-05-06 16:46 | 25.22502 | 55.38630 | 670 ft | 119 kts | 112° |
| 2026-05-06 16:46 | 25.22166 | 55.39481 | 646 ft | 122 kts | 109° |
| 2026-05-06 16:46 | 25.21877 | 55.40343 | 661 ft | 122 kts | 111° |
| 2026-05-06 16:47 | 25.21878 | 55.41118 | 640 ft | 114 kts | 18° |
| 2026-05-06 16:47 | 25.22656 | 55.41144 | 574 ft | 115 kts | 321° |
| 2026-05-06 16:47 | 25.23125 | 55.40348 | 323 ft | 128 kts | 302° |
| 2026-05-06 16:47 | 25.23596 | 55.39513 | 165 ft | 130 kts | 302° |
| 2026-05-06 16:48 | 25.24047 | 55.38680 | 52 ft | 122 kts | 302° |
| 2026-05-06 16:48 | 25.24465 | 55.37903 | 262 ft | 110 kts | 302° |
| 2026-05-06 16:48 | 25.24848 | 55.37208 | 438 ft | 109 kts | 305° |
| 2026-05-06 16:48 | 25.25243 | 55.36463 | 468 ft | 115 kts | 300° |
| 2026-05-06 16:49 | 25.25530 | 55.35955 | 463 ft | 119 kts | 306° |
| 2026-05-06 16:49 | 25.25954 | 55.35262 | 679 ft | 108 kts | 305° |
| 2026-05-06 16:49 | 25.26368 | 55.34509 | 694 ft | 116 kts | 303° |
| 2026-05-06 16:49 | 25.26837 | 55.33761 | 680 ft | 122 kts | 310° |
| 2026-05-06 16:50 | 25.26892 | 55.32965 | 675 ft | 125 kts | 216° |
| 2026-05-06 16:50 | 25.26151 | 55.32568 | 750 ft | 117 kts | 163° |
| 2026-05-06 16:50 | 25.25660 | 55.33234 | 739 ft | 119 kts | 106° |
| 2026-05-06 16:50 | 25.25366 | 55.34134 | 574 ft | 130 kts | 119° |
| 2026-05-06 16:51 | 25.24889 | 55.34970 | 531 ft | 127 kts | 121° |
| 2026-05-06 16:51 | 25.24421 | 55.35769 | 579 ft | 118 kts | 129° |
| 2026-05-06 16:51 | 25.23838 | 55.36450 | 531 ft | 125 kts | 126° |
| 2026-05-06 16:51 | 25.23396 | 55.37247 | 528 ft | 120 kts | 120° |
| 2026-05-06 16:52 | 25.22949 | 55.38012 | 529 ft | 120 kts | 121° |
| 2026-05-06 16:52 | 25.22556 | 55.38796 | 572 ft | 117 kts | 116° |
| 2026-05-06 16:52 | 25.22188 | 55.39612 | 625 ft | 115 kts | 126° |
| 2026-05-06 16:52 | 25.21592 | 55.39509 | 604 ft | 115 kts | 271° |
| 2026-05-06 16:53 | 25.21848 | 55.39681 | 353 ft | 108 kts | 148° |
| 2026-05-06 16:53 | 25.21554 | 55.39244 | 299 ft | 102 kts | 340° |
| 2026-05-06 16:53 | 25.21789 | 55.39697 | 262 ft | 91 kts | 105° |
| 2026-05-06 16:53 | 25.21426 | 55.39704 | 379 ft | 86 kts | 261° |
| 2026-05-06 16:54 | 25.21793 | 55.39602 | 293 ft | 75 kts | 69° |